الصفحة الرئيسية
METAR-TAF:

METAR-TAF

مطار :

ساموس, اليونان

دائرة عرض: 37-42N, خط طول: 026-55E, ارتفاع: 2 متر

مراقبة الطقس الحالي

تاريخ ووقت الإصدار 53 دقيقة قبل الساعة 20:50UTC
ريح 10 عقدة من الشمال, الاتجاه يتراوح بين الشمال الغربي و الشمال/الشمال الشرقي
درجة الحرارة 20°درجة مئوية
الرطوبة 60%
ضغط 1015 hPa
الرؤية 10 كم أو أكثر
غيوم قليلة على ارتفاع 3500 قدم

METAR: LGSM 252050Z 35010KT 320V020 9999 FEW035 20/12 Q1015

زمن: 00:43 (21:43 UTC)

توقعات

تاريخ ووقت الإصدار 1ساعة و 43 دقيقة قبل الساعة 20:00UTC
التوقعات صالحة من25 الساعة 21 UTC إلى 26 الساعة 06 UTC
ريح 13 عقدة من الشمال
الرؤية 10 كم أو أكثر
غيوم قليلة على ارتفاع 2500 قدم

TAF: LGSM 252000Z 2521/2606 35013KT 9999 FEW025

أرصاد الطقس والتوقعات من أكثر من 4000 مطار (تقارير الطقس للمطار METAR والتنبؤ بالطقس بالمطارTAF).

المحطات المتاحة هي النقط الصفراء والحمراء على الخريطة.

حرك المؤشر فوق النقطة لمعرفة اسم المحطة.

ثم انقر لمعرفة أرصاد وتوقعات الطقس.

لتغيير الخارطة: اضغط على الأزرار الخضراء مع رمز الصليب الأسود للتكبير. على الزر الأخضر مع شرطة للتصغير، أو على الأسهم الخضراء للخرائط المجاورة.


METAR-TAF: